Time;durP1;ratioP1;P1;durP2;ratioP2;P2;SDS_P1;SDS_P2;PMS_P1;PMS_P2;Temp;Humidity;BMP_temperature;BMP_pressure;BME280_temperature;BME280_humidity;BME280_pressure;Samples;Min_cycle;Max_cycle;Signal;HPM_P1;HPM_P2
2022/06/09 00:01:12;;;;;;;2.30;1.40;;;25.50;50.60;;;;;;5042992;28;20078;-49
2022/06/09 00:03:43;;;;;;;2.35;1.20;;;25.50;50.70;;;;;;5044466;28;20595;-47
2022/06/09 00:06:11;;;;;;;2.72;1.60;;;25.50;50.60;;;;;;5042505;28;20624;-52
2022/06/09 00:08:41;;;;;;;2.53;1.50;;;25.50;50.60;;;;;;5043136;28;20484;-46
2022/06/09 00:11:10;;;;;;;2.35;1.27;;;25.50;50.60;;;;;;5040319;28;20045;-45
2022/06/09 00:13:38;;;;;;;2.05;1.30;;;25.50;50.60;;;;;;5044083;28;20036;-46
2022/06/09 00:16:06;;;;;;;3.15;1.63;;;25.50;50.60;;;;;;5041715;28;20142;-47
2022/06/09 00:18:31;;;;;;;2.67;1.42;;;25.60;50.60;;;;;;5043160;28;20645;-45
2022/06/09 00:20:57;;;;;;;2.50;1.67;;;25.50;50.60;;;;;;5043716;28;20111;-46
2022/06/09 00:23:23;;;;;;;2.28;1.38;;;25.50;50.60;;;;;;5042509;28;20044;-46
2022/06/09 00:25:49;;;;;;;2.40;1.30;;;25.50;50.50;;;;;;5043812;28;20029;-45
2022/06/09 00:28:15;;;;;;;2.15;1.23;;;25.50;50.50;;;;;;5043405;28;20036;-46
2022/06/09 00:30:41;;;;;;;3.08;1.63;;;25.50;50.50;;;;;;5043590;28;20028;-46
2022/06/09 00:33:07;;;;;;;2.40;1.38;;;25.50;51.30;;;;;;5043515;28;20029;-46
2022/06/09 00:35:33;;;;;;;2.38;1.40;;;25.50;50.50;;;;;;5043000;28;20070;-47
2022/06/09 00:37:59;;;;;;;2.22;1.48;;;25.50;50.50;;;;;;5043235;28;20041;-46
2022/06/09 00:40:25;;;;;;;2.47;1.52;;;25.50;50.50;;;;;;5041090;28;20029;-45
2022/06/09 00:42:51;;;;;;;2.10;1.30;;;25.50;50.50;;;;;;5025785;28;20705;-46
2022/06/09 00:45:42;;;;;;;2.83;1.50;;;25.50;50.50;;;;;;5043651;28;20083;-46
2022/06/09 00:48:16;;;;;;;2.55;1.50;;;25.50;50.50;;;;;;5042852;28;20078;-46
2022/06/09 00:50:43;;;;;;;1.83;1.20;;;25.50;50.50;;;;;;5042036;28;20580;-45
2022/06/09 00:53:16;;;;;;;4.15;1.55;;;25.50;50.50;;;;;;5041663;28;20571;-45
2022/06/09 00:55:43;;;;;;;2.65;1.67;;;25.50;50.60;;;;;;5042666;28;20029;-47
2022/06/09 00:58:14;;;;;;;2.50;1.50;;;25.50;50.60;;;;;;5040722;28;20037;-46
2022/06/09 01:00:50;;;;;;;2.63;1.70;;;25.50;50.60;;;;;;5041140;28;20021;-46
2022/06/09 01:03:23;;;;;;;2.72;1.63;;;25.50;50.60;;;;;;5042610;28;20031;-46
2022/06/09 01:05:51;;;;;;;2.78;1.60;;;25.50;50.70;;;;;;5043330;28;20013;-46
2022/06/09 01:08:16;;;;;;;2.70;1.48;;;25.50;50.70;;;;;;5041448;28;20106;-45
2022/06/09 01:10:42;;;;;;;2.63;1.60;;;25.50;50.60;;;;;;5040256;28;20480;-46
2022/06/09 01:13:09;;;;;;;2.72;1.70;;;25.50;50.60;;;;;;5040438;28;20064;-45
2022/06/09 01:15:43;;;;;;;2.80;1.50;;;25.50;50.60;;;;;;5041823;28;20028;-45
2022/06/09 01:18:28;;;;;;;3.10;1.67;;;25.50;50.60;;;;;;5041857;28;20024;-46
2022/06/09 01:21:02;;;;;;;2.28;1.50;;;25.50;50.60;;;;;;5042701;28;20104;-47
2022/06/09 01:23:43;;;;;;;2.83;1.80;;;25.50;50.60;;;;;;5039027;28;20078;-44
2022/06/09 01:26:32;;;;;;;3.10;1.60;;;25.50;50.60;;;;;;5040854;28;20399;-45
2022/06/09 01:29:07;;;;;;;3.72;1.83;;;25.50;50.50;;;;;;5040062;28;20025;-47
2022/06/09 01:31:59;;;;;;;2.22;1.50;;;25.50;50.50;;;;;;5041722;28;20101;-46
2022/06/09 01:35:05;;;;;;;2.50;1.50;;;25.50;50.60;;;;;;5042466;28;20017;-46
2022/06/09 01:37:41;;;;;;;2.10;1.42;;;25.50;50.50;;;;;;5042350;28;20211;-46
2022/06/09 01:40:10;;;;;;;2.10;1.40;;;25.50;50.50;;;;;;5042033;28;20039;-47
2022/06/09 01:42:44;;;;;;;3.10;1.98;;;25.50;50.60;;;;;;5039877;28;20021;-46
2022/06/09 01:45:16;;;;;;;3.55;1.65;;;25.50;50.50;;;;;;5041206;28;20036;-46
2022/06/09 01:48:06;;;;;;;2.97;1.88;;;25.50;50.50;;;;;;5042168;28;20040;-46
2022/06/09 01:51:05;;;;;;;2.90;1.80;;;25.50;50.60;;;;;;5041464;28;20055;-46
2022/06/09 01:53:51;;;;;;;7.38;1.67;;;25.50;51.30;;;;;;5040136;28;20048;-48
2022/06/09 01:56:32;;;;;;;2.15;1.30;;;25.40;50.60;;;;;;5042489;28;20025;-46
2022/06/09 01:59:16;;;;;;;2.70;1.70;;;25.50;50.50;;;;;;5041695;28;20064;-46
2022/06/09 02:01:49;;;;;;;2.90;1.50;;;25.50;50.40;;;;;;5040901;28;20787;-45
2022/06/09 02:04:23;;;;;;;2.45;1.55;;;25.50;51.00;;;;;;5040690;28;20021;-48
2022/06/09 02:06:51;;;;;;;2.92;1.98;;;25.50;50.40;;;;;;5040709;28;20021;-45
2022/06/09 02:09:17;;;;;;;2.67;1.63;;;25.50;50.30;;;;;;5041984;28;20048;-47
2022/06/09 02:11:54;;;;;;;2.75;1.60;;;25.50;50.40;;;;;;5041428;28;20056;-46
2022/06/09 02:14:23;;;;;;;2.90;1.90;;;25.50;50.30;;;;;;5039911;28;20033;-45
2022/06/09 02:16:49;;;;;;;2.75;1.55;;;25.40;50.30;;;;;;5040484;28;20025;-47
2022/06/09 02:19:15;;;;;;;3.00;1.60;;;25.50;50.20;;;;;;5040856;28;20032;-46
2022/06/09 02:21:41;;;;;;;2.25;1.30;;;25.40;50.20;;;;;;5041633;28;20021;-46
2022/06/09 02:24:07;;;;;;;2.30;1.33;;;25.40;50.20;;;;;;5039640;28;20032;-46
2022/06/09 02:26:33;;;;;;;2.58;1.50;;;25.40;50.20;;;;;;5042039;28;20021;-46
2022/06/09 02:29:00;;;;;;;2.40;1.48;;;25.40;50.20;;;;;;5043512;28;20032;-46
2022/06/09 02:31:25;;;;;;;2.63;1.42;;;25.50;50.20;;;;;;5045675;28;20206;-48
2022/06/09 02:33:54;;;;;;;2.78;1.30;;;25.50;50.10;;;;;;5046082;28;20720;-46
2022/06/09 02:36:20;;;;;;;2.42;1.50;;;25.40;50.00;;;;;;5045520;28;20025;-46
2022/06/09 02:38:46;;;;;;;2.65;1.50;;;25.40;50.00;;;;;;5044369;28;20039;-47
2022/06/09 02:41:12;;;;;;;2.80;1.60;;;25.40;50.00;;;;;;5044259;28;20033;-46
2022/06/09 02:43:38;;;;;;;2.28;1.30;;;25.40;50.10;;;;;;5045371;28;20033;-46
2022/06/09 02:46:04;;;;;;;3.03;1.52;;;25.40;49.90;;;;;;5045582;28;20021;-49
2022/06/09 02:48:31;;;;;;;3.35;1.42;;;25.50;50.00;;;;;;5044857;28;20385;-45
2022/06/09 02:50:56;;;;;;;3.45;1.40;;;25.40;49.90;;;;;;5045428;28;20042;-46
2022/06/09 02:53:24;;;;;;;2.03;1.13;;;25.40;50.00;;;;;;5043728;28;20028;-45
2022/06/09 02:55:50;;;;;;;2.15;1.20;;;25.40;49.80;;;;;;5043379;28;20078;-46
2022/06/09 02:58:16;;;;;;;2.13;1.35;;;25.40;49.80;;;;;;5045026;28;20061;-45
2022/06/09 03:00:42;;;;;;;2.10;1.27;;;25.40;49.90;;;;;;5044583;28;20489;-46
2022/06/09 03:03:13;;;;;;;1.85;0.90;;;25.40;50.50;;;;;;5044429;28;20037;-46
2022/06/09 03:05:38;;;;;;;1.98;1.17;;;25.40;49.80;;;;;;5044933;28;20123;-45
2022/06/09 03:08:08;;;;;;;1.73;1.10;;;25.40;49.70;;;;;;5044901;28;20108;-46
2022/06/09 03:10:37;;;;;;;2.20;1.00;;;25.40;49.80;;;;;;5045279;28;20025;-46
2022/06/09 03:13:04;;;;;;;1.88;1.08;;;25.40;49.80;;;;;;5045158;28;20041;-46
2022/06/09 03:15:30;;;;;;;2.28;1.10;;;25.40;49.80;;;;;;5044929;28;20033;-47
2022/06/09 03:17:56;;;;;;;1.95;1.15;;;25.40;49.80;;;;;;5042665;28;20096;-46
2022/06/09 03:20:27;;;;;;;1.58;0.77;;;25.40;49.70;;;;;;5044481;28;20040;-46
2022/06/09 03:22:53;;;;;;;2.25;1.35;;;25.40;49.80;;;;;;5042324;28;20025;-47
2022/06/09 03:25:19;;;;;;;2.30;1.20;;;25.40;49.80;;;;;;5042781;28;20262;-46
2022/06/09 03:27:45;;;;;;;1.58;0.90;;;25.40;49.70;;;;;;5042990;28;20067;-46
2022/06/09 03:30:12;;;;;;;1.90;1.02;;;25.40;49.60;;;;;;5044423;28;20057;-46
2022/06/09 03:32:38;;;;;;;1.70;0.90;;;25.40;49.80;;;;;;5044674;28;20029;-46
2022/06/09 03:35:05;;;;;;;1.75;0.93;;;25.40;49.60;;;;;;5044580;28;20025;-46
2022/06/09 03:37:31;;;;;;;2.05;1.08;;;25.40;49.60;;;;;;5042796;28;20028;-46
2022/06/09 03:39:57;;;;;;;2.60;0.90;;;25.40;49.60;;;;;;5044040;28;20116;-46
2022/06/09 03:42:23;;;;;;;2.03;1.17;;;25.40;49.50;;;;;;5044981;28;20100;-46
2022/06/09 03:44:48;;;;;;;1.95;1.00;;;25.40;49.50;;;;;;5044599;28;20555;-46
2022/06/09 03:47:14;;;;;;;1.92;0.90;;;25.40;49.50;;;;;;5044215;28;20097;-46
2022/06/09 03:49:40;;;;;;;1.50;0.90;;;25.40;49.50;;;;;;5042629;28;21281;-47
2022/06/09 03:52:06;;;;;;;1.58;0.90;;;25.40;49.50;;;;;;5044118;28;20037;-45
2022/06/09 03:54:32;;;;;;;2.10;0.90;;;25.40;49.40;;;;;;5040906;28;20082;-46
2022/06/09 03:56:58;;;;;;;1.50;0.80;;;25.40;49.40;;;;;;5043998;28;20025;-46
2022/06/09 03:59:23;;;;;;;1.50;0.80;;;25.40;49.50;;;;;;5044216;28;20047;-46
2022/06/09 04:01:49;;;;;;;1.88;0.85;;;25.40;49.30;;;;;;5043747;28;20070;-45
2022/06/09 04:04:15;;;;;;;1.77;0.70;;;25.40;49.30;;;;;;5044222;28;20047;-45
2022/06/09 04:06:41;;;;;;;1.50;0.75;;;25.40;49.30;;;;;;5043448;28;20255;-47
2022/06/09 04:09:07;;;;;;;1.33;0.60;;;25.40;49.30;;;;;;5043129;28;20029;-46
2022/06/09 04:11:33;;;;;;;0.93;0.60;;;25.40;49.20;;;;;;5043351;28;20029;-46
2022/06/09 04:13:59;;;;;;;1.65;0.73;;;25.40;49.30;;;;;;5043628;28;20550;-45
2022/06/09 04:16:30;;;;;;;1.60;0.70;;;25.40;49.30;;;;;;5043696;28;20025;-53
2022/06/09 04:19:01;;;;;;;1.15;0.68;;;25.40;49.30;;;;;;5042477;28;20041;-46
2022/06/09 04:21:28;;;;;;;1.23;0.55;;;25.40;49.30;;;;;;5043569;28;20082;-47
2022/06/09 04:23:55;;;;;;;1.70;0.82;;;25.40;49.30;;;;;;5041147;28;20080;-45
2022/06/09 04:26:26;;;;;;;1.10;0.65;;;25.40;49.30;;;;;;5043752;28;20481;-46
2022/06/09 04:28:52;;;;;;;1.38;0.82;;;25.40;49.20;;;;;;5041610;28;20083;-45
2022/06/09 04:31:19;;;;;;;2.25;1.02;;;25.40;49.20;;;;;;5042838;28;20028;-46
2022/06/09 04:33:45;;;;;;;1.35;0.60;;;25.30;49.20;;;;;;5042199;28;20146;-44
2022/06/09 04:36:13;;;;;;;0.60;0.40;;;25.30;49.20;;;;;;5042070;28;20086;-45
2022/06/09 04:38:39;;;;;;;1.02;0.73;;;25.40;49.20;;;;;;5042719;28;20622;-46
2022/06/09 04:41:10;;;;;;;1.02;0.60;;;25.40;49.10;;;;;;5043150;28;20064;-45
2022/06/09 04:43:41;;;;;;;1.65;0.73;;;25.30;49.20;;;;;;5042487;28;20031;-46
2022/06/09 04:46:08;;;;;;;1.17;0.60;;;25.40;49.10;;;;;;5042128;28;20025;-46
2022/06/09 04:48:35;;;;;;;1.00;0.60;;;25.30;49.00;;;;;;5041172;28;20643;-45
2022/06/09 04:51:03;;;;;;;1.45;0.70;;;25.30;49.00;;;;;;5042709;28;20033;-45
2022/06/09 04:53:29;;;;;;;0.90;0.57;;;25.40;49.10;;;;;;5039827;28;20033;-46
2022/06/09 04:55:55;;;;;;;1.50;0.50;;;25.30;49.10;;;;;;5041173;28;20040;-46
2022/06/09 04:58:21;;;;;;;4.13;0.77;;;25.30;49.00;;;;;;5041786;28;20327;-46
2022/06/09 05:00:46;;;;;;;0.95;0.65;;;25.30;49.00;;;;;;5041802;28;20348;-46
2022/06/09 05:03:12;;;;;;;1.40;0.50;;;25.30;49.00;;;;;;5041331;28;20116;-47
2022/06/09 05:05:41;;;;;;;1.10;0.60;;;25.30;49.00;;;;;;5040374;28;20025;-46
2022/06/09 05:08:07;;;;;;;1.02;0.55;;;25.30;49.50;;;;;;5037971;28;20282;-48
2022/06/09 05:10:33;;;;;;;1.15;0.60;;;25.30;49.00;;;;;;5041058;28;20662;-46
2022/06/09 05:13:00;;;;;;;1.70;0.63;;;25.20;48.70;;;;;;5041887;28;20037;-46
2022/06/09 05:15:27;;;;;;;2.13;0.80;;;25.20;47.90;;;;;;5041978;28;20056;-47
2022/06/09 05:17:53;;;;;;;1.20;0.50;;;25.20;48.50;;;;;;5041525;28;20021;-48
2022/06/09 05:20:23;;;;;;;1.30;0.40;;;25.20;48.50;;;;;;5041847;28;20024;-47
2022/06/09 05:22:49;;;;;;;0.75;0.40;;;25.10;48.40;;;;;;5042165;28;20029;-45
2022/06/09 05:25:15;;;;;;;1.60;0.60;;;25.10;48.70;;;;;;5040955;28;20032;-47
2022/06/09 05:27:41;;;;;;;0.90;0.50;;;25.00;48.60;;;;;;5043186;28;20536;-46
2022/06/09 05:30:24;;;;;;;2.92;0.65;;;25.00;48.80;;;;;;5042161;28;20097;-45
2022/06/09 05:32:50;;;;;;;1.42;0.50;;;25.00;48.20;;;;;;5040410;28;20037;-47
2022/06/09 05:35:18;;;;;;;1.55;0.65;;;24.90;48.40;;;;;;5042692;28;20029;-49
2022/06/09 05:46:00;;;;;;;1.58;0.52;;;24.80;48.90;;;;;;5041617;28;20732;-48
2022/06/09 05:48:26;;;;;;;1.92;0.70;;;24.80;49.00;;;;;;5042120;28;20025;-48
2022/06/09 05:50:53;;;;;;;2.25;0.70;;;24.80;49.70;;;;;;5041881;28;20035;-47
2022/06/09 05:53:19;;;;;;;1.17;0.50;;;24.80;49.10;;;;;;5041229;28;20032;-46
2022/06/09 05:55:45;;;;;;;1.63;0.57;;;24.70;49.00;;;;;;5038284;28;20017;-48
2022/06/09 05:58:11;;;;;;;1.30;0.50;;;24.80;49.00;;;;;;5041510;28;20248;-46
2022/06/09 06:00:39;;;;;;;1.00;0.50;;;24.70;48.60;;;;;;5039734;28;20547;-48
2022/06/09 06:03:04;;;;;;;1.08;0.50;;;24.70;49.10;;;;;;5041540;28;20033;-46
2022/06/09 06:08:14;;;;;;;4.65;1.17;;;24.70;50.80;;;;;;5030700;28;20499;-48
2022/06/09 06:10:40;;;;;;;2.55;1.02;;;24.70;50.90;;;;;;5028548;28;20029;-48
2022/06/09 06:13:06;;;;;;;3.28;0.88;;;24.70;50.10;;;;;;5042833;28;20057;-47
2022/06/09 06:15:32;;;;;;;2.10;0.75;;;24.70;50.20;;;;;;5041409;28;20029;-46
2022/06/09 06:18:02;;;;;;;1.50;0.70;;;24.60;48.20;;;;;;5043043;28;20032;-46
2022/06/09 06:20:32;;;;;;;2.13;0.70;;;24.40;47.90;;;;;;5043200;28;20017;-46
2022/06/09 06:22:57;;;;;;;1.45;0.60;;;24.20;48.50;;;;;;5044845;28;20033;-47
2022/06/09 06:25:24;;;;;;;2.67;0.75;;;24.00;48.70;;;;;;5041300;28;20228;-47
2022/06/09 06:27:50;;;;;;;1.75;0.65;;;23.80;48.50;;;;;;5043397;28;20100;-47
2022/06/09 06:30:16;;;;;;;2.75;0.68;;;23.60;49.10;;;;;;5043266;28;20178;-46
2022/06/09 06:32:42;;;;;;;3.67;0.95;;;23.50;49.50;;;;;;5044783;28;20021;-46
2022/06/09 06:35:08;;;;;;;3.45;0.75;;;23.40;50.20;;;;;;5045487;28;20028;-47
2022/06/09 06:37:34;;;;;;;1.75;0.75;;;23.20;49.60;;;;;;5044993;28;20033;-48
2022/06/09 06:40:00;;;;;;;0.63;0.40;;;23.10;50.90;;;;;;5038890;28;20028;-47
2022/06/09 06:42:26;;;;;;;2.42;0.60;;;22.90;50.80;;;;;;5032445;28;20050;-46
2022/06/09 06:44:52;;;;;;;1.25;0.52;;;22.80;51.40;;;;;;5027864;28;20599;-46
2022/06/09 06:47:17;;;;;;;1.65;0.57;;;22.70;51.70;;;;;;5034491;28;20029;-46
2022/06/09 06:49:43;;;;;;;2.95;0.80;;;22.60;51.40;;;;;;5033725;28;20026;-46
2022/06/09 06:52:09;;;;;;;2.03;0.60;;;22.50;51.70;;;;;;5017076;28;20109;-47
2022/06/09 06:54:35;;;;;;;2.05;0.80;;;22.50;52.40;;;;;;5040331;28;20508;-46
2022/06/09 06:57:05;;;;;;;1.98;0.85;;;22.40;52.30;;;;;;5034504;28;20588;-47
2022/06/09 06:59:32;;;;;;;1.98;0.80;;;22.30;52.00;;;;;;5038878;28;20060;-47
2022/06/09 07:02:00;;;;;;;2.47;0.80;;;22.10;53.10;;;;;;5042061;28;20017;-47
2022/06/09 07:04:26;;;;;;;1.67;0.70;;;21.90;53.30;;;;;;5025644;28;20033;-48
2022/06/09 07:06:52;;;;;;;1.50;0.60;;;21.90;53.70;;;;;;5024644;28;20025;-47
2022/06/09 07:09:19;;;;;;;2.55;0.95;;;21.80;53.30;;;;;;5042835;28;20027;-44
2022/06/09 07:11:45;;;;;;;1.73;0.70;;;21.80;54.10;;;;;;5042829;28;20021;-46
2022/06/09 07:14:12;;;;;;;2.88;0.70;;;21.70;54.00;;;;;;5039095;28;20271;-46
2022/06/09 07:16:38;;;;;;;2.03;0.77;;;21.70;54.30;;;;;;5034356;28;20029;-47
2022/06/09 07:19:04;;;;;;;2.17;0.70;;;21.70;53.80;;;;;;5039159;28;20389;-47
2022/06/09 07:21:30;;;;;;;2.28;0.60;;;21.70;54.40;;;;;;5043048;28;20075;-47
2022/06/09 07:23:56;;;;;;;1.52;0.50;;;21.70;54.00;;;;;;5031988;28;20021;-47
2022/06/09 07:26:22;;;;;;;1.88;0.70;;;21.60;54.30;;;;;;5018300;28;20124;-45
2022/06/09 07:28:48;;;;;;;1.90;0.70;;;21.50;54.50;;;;;;5045051;28;20100;-46
2022/06/09 07:31:14;;;;;;;1.50;0.77;;;21.50;54.50;;;;;;5042905;28;20028;-48
2022/06/09 07:33:41;;;;;;;2.00;0.82;;;21.40;54.60;;;;;;5043486;28;20104;-46
2022/06/09 07:36:15;;;;;;;2.17;0.65;;;21.30;54.90;;;;;;5043419;28;20025;-47
2022/06/09 07:38:41;;;;;;;1.58;0.70;;;21.20;55.30;;;;;;5042406;28;20029;-48
2022/06/09 07:41:07;;;;;;;1.70;0.80;;;21.30;56.00;;;;;;5042900;28;20492;-46
2022/06/09 07:43:33;;;;;;;2.20;0.85;;;21.20;55.20;;;;;;5034706;28;20321;-48
2022/06/09 07:45:59;;;;;;;2.45;0.80;;;21.20;56.10;;;;;;5039456;28;20467;-47
2022/06/09 07:48:25;;;;;;;2.00;0.68;;;21.30;56.30;;;;;;5028926;28;20038;-46
2022/06/09 07:50:51;;;;;;;2.15;0.63;;;21.40;56.30;;;;;;5027295;28;20033;-45
2022/06/09 07:53:21;;;;;;;1.52;0.55;;;21.50;55.90;;;;;;5042399;28;20116;-46
2022/06/09 07:55:48;;;;;;;4.32;0.93;;;21.70;55.70;;;;;;5036683;28;20039;-46
2022/06/09 07:58:14;;;;;;;1.25;0.52;;;21.80;55.30;;;;;;5038283;28;20021;-47
2022/06/09 08:00:41;;;;;;;1.63;0.70;;;21.90;55.10;;;;;;5039879;28;20022;-48
2022/06/09 08:03:07;;;;;;;2.03;0.70;;;22.00;54.80;;;;;;5022100;28;20071;-45
2022/06/09 08:05:34;;;;;;;5.32;1.25;;;22.10;54.60;;;;;;5025347;28;20021;-45
2022/06/09 08:08:01;;;;;;;1.20;0.70;;;22.20;54.40;;;;;;5023673;28;20029;-47
2022/06/09 08:10:29;;;;;;;1.35;0.60;;;22.30;54.30;;;;;;5037638;28;20040;-46
2022/06/09 08:12:58;;;;;;;1.30;0.45;;;22.40;54.20;;;;;;5033030;28;20082;-46
2022/06/09 08:15:25;;;;;;;1.17;0.70;;;22.50;54.10;;;;;;5041374;28;20400;-47
2022/06/09 08:17:52;;;;;;;1.35;0.57;;;22.60;54.00;;;;;;5023260;28;20033;-44
2022/06/09 08:20:18;;;;;;;2.15;0.85;;;22.60;53.90;;;;;;5023622;28;20034;-46
2022/06/09 08:22:44;;;;;;;1.77;0.50;;;22.70;53.80;;;;;;5007546;28;20523;-46
2022/06/09 08:25:13;;;;;;;4.53;0.63;;;22.70;53.70;;;;;;5020532;28;20124;-48
2022/06/09 08:27:39;;;;;;;2.33;0.85;;;22.80;53.50;;;;;;5023293;28;20120;-45
2022/06/09 08:30:07;;;;;;;2.35;0.52;;;22.90;53.50;;;;;;5024686;28;20120;-46
2022/06/09 08:32:34;;;;;;;2.95;0.68;;;22.90;53.40;;;;;;5024721;28;20029;-47
2022/06/09 08:35:00;;;;;;;2.28;0.70;;;23.00;53.30;;;;;;5023051;28;20029;-46
2022/06/09 08:37:26;;;;;;;1.63;0.50;;;23.00;53.20;;;;;;5036336;28;20075;-49
2022/06/09 08:39:53;;;;;;;3.05;0.90;;;23.10;53.10;;;;;;5024294;28;20034;-46
2022/06/09 08:42:46;;;;;;;1.83;0.85;;;23.10;53.00;;;;;;5024128;28;20025;-48
2022/06/09 08:45:23;;;;;;;4.07;0.82;;;23.20;52.90;;;;;;5024589;28;20033;-45
2022/06/09 08:47:54;;;;;;;1.67;0.50;;;23.20;52.80;;;;;;5006133;28;20070;-47
2022/06/09 08:50:26;;;;;;;1.77;0.45;;;23.30;52.80;;;;;;5024127;28;20037;-46
2022/06/09 08:52:54;;;;;;;1.77;0.60;;;23.30;52.70;;;;;;5022980;28;20032;-45
2022/06/09 08:55:34;;;;;;;1.85;0.60;;;23.30;52.60;;;;;;5024080;28;20124;-45
2022/06/09 08:58:15;;;;;;;1.27;0.50;;;23.40;52.50;;;;;;5023737;28;20033;-45
2022/06/09 09:00:44;;;;;;;2.22;0.68;;;23.40;52.30;;;;;;5023409;28;20026;-46
2022/06/09 09:03:22;;;;;;;2.65;0.77;;;23.50;52.30;;;;;;5024905;28;20457;-46
2022/06/09 09:05:58;;;;;;;1.20;0.57;;;23.50;52.20;;;;;;5024422;28;20049;-45
2022/06/09 09:08:24;;;;;;;1.95;0.70;;;23.60;52.10;;;;;;5024716;28;20025;-46
2022/06/09 09:11:08;;;;;;;2.63;0.45;;;23.60;52.00;;;;;;5040934;28;20123;-44
2022/06/09 09:13:38;;;;;;;3.08;0.82;;;23.60;52.00;;;;;;5044149;28;20036;-46
2022/06/09 09:16:38;;;;;;;1.77;0.60;;;23.70;52.00;;;;;;5038725;28;20029;-45
2022/06/09 09:19:25;;;;;;;2.10;0.65;;;23.70;51.90;;;;;;5030652;28;20042;-46
2022/06/09 09:22:02;;;;;;;1.02;0.35;;;23.70;51.90;;;;;;5023636;28;20140;-47
2022/06/09 09:24:37;;;;;;;1.10;0.30;;;23.70;51.80;;;;;;5030751;28;20507;-46
2022/06/09 09:27:40;;;;;;;1.10;0.47;;;23.80;51.70;;;;;;5036091;28;20026;-47
2022/06/09 09:30:06;;;;;;;0.90;0.35;;;23.80;51.70;;;;;;5022086;28;20048;-47
2022/06/09 09:32:44;;;;;;;1.33;0.50;;;23.80;51.50;;;;;;5022604;28;20639;-47
2022/06/09 09:35:27;;;;;;;2.90;0.65;;;23.80;51.50;;;;;;5023782;28;20037;-47
2022/06/09 09:37:55;;;;;;;2.10;0.60;;;23.90;51.60;;;;;;5021752;28;20061;-48
2022/06/09 09:40:39;;;;;;;0.93;0.40;;;23.90;51.40;;;;;;5036413;28;20108;-46
2022/06/09 09:43:14;;;;;;;1.00;0.55;;;23.90;51.40;;;;;;5043908;28;20186;-47
2022/06/09 09:45:44;;;;;;;1.15;0.40;;;24.00;51.40;;;;;;5036650;28;20523;-47
2022/06/09 09:48:21;;;;;;;1.23;0.50;;;24.00;51.30;;;;;;5023816;28;20094;-47
2022/06/09 09:51:06;;;;;;;1.52;0.63;;;24.10;51.30;;;;;;5023579;28;20037;-46
2022/06/09 09:53:36;;;;;;;1.35;0.60;;;24.00;51.30;;;;;;5023959;28;20091;-46
2022/06/09 09:56:02;;;;;;;1.73;0.50;;;24.00;51.10;;;;;;5022847;28;20112;-46
2022/06/09 09:58:34;;;;;;;0.88;0.35;;;24.10;51.20;;;;;;5031294;28;20553;-45
2022/06/09 10:01:26;;;;;;;1.23;0.50;;;24.10;51.10;;;;;;5042943;28;20149;-46
2022/06/09 10:09:42;;;;;;;1.48;0.50;;;24.20;51.10;;;;;;5043251;28;20035;-49
2022/06/09 10:12:27;;;;;;;0.95;0.43;;;24.20;51.00;;;;;;5033715;28;20156;-48
2022/06/09 10:15:11;;;;;;;1.30;0.55;;;24.20;50.90;;;;;;5023852;28;20025;-49
2022/06/09 10:17:44;;;;;;;2.88;0.55;;;24.20;50.90;;;;;;5022131;28;20029;-45
2022/06/09 10:20:21;;;;;;;1.77;0.70;;;24.20;50.90;;;;;;5006071;28;20049;-46
2022/06/09 10:23:13;;;;;;;1.60;0.43;;;24.20;50.80;;;;;;5023728;28;20033;-47
2022/06/09 10:26:17;;;;;;;1.58;0.50;;;24.20;50.80;;;;;;5029223;28;20057;-46
2022/06/09 10:28:55;;;;;;;1.58;0.55;;;24.20;50.90;;;;;;5021625;28;20033;-47
2022/06/09 10:31:50;;;;;;;1.60;0.80;;;24.30;50.80;;;;;;5023433;28;20451;-48
2022/06/09 10:34:31;;;;;;;1.92;0.40;;;24.30;50.90;;;;;;5023507;28;20037;-45
2022/06/09 10:37:21;;;;;;;1.23;0.40;;;24.30;50.80;;;;;;5022755;28;20034;-47
2022/06/09 10:40:03;;;;;;;1.25;0.40;;;24.30;50.80;;;;;;5031405;28;20028;-47
2022/06/09 10:42:57;;;;;;;1.55;0.40;;;24.30;50.70;;;;;;5043560;28;20309;-45
2022/06/09 10:45:28;;;;;;;;;;;24.40;50.70;;;;;;5044190;28;20044;-47
2022/06/09 10:57:18;;;;;;;1.67;0.50;;;24.40;50.70;;;;;;5027894;28;20036;-46
2022/06/09 10:59:59;;;;;;;0.75;0.40;;;24.40;50.60;;;;;;5025999;28;20017;-47
2022/06/09 11:02:27;;;;;;;2.05;0.70;;;24.40;50.60;;;;;;5026994;28;20030;-43
2022/06/09 11:04:54;;;;;;;2.72;0.80;;;24.40;50.50;;;;;;5025486;28;20440;-47
2022/06/09 11:07:36;;;;;;;2.30;0.50;;;24.50;50.60;;;;;;5026272;28;20103;-48
2022/06/09 11:10:17;;;;;;;0.75;0.30;;;24.50;50.60;;;;;;5035866;28;20033;-47
2022/06/09 11:12:57;;;;;;;1.40;0.50;;;24.50;50.60;;;;;;5031592;28;20065;-44
2022/06/09 11:15:34;;;;;;;1.33;0.38;;;24.50;50.50;;;;;;5026659;28;20120;-46
2022/06/09 11:18:07;;;;;;;1.77;0.70;;;24.50;50.50;;;;;;5026168;28;20024;-47
2022/06/09 11:20:50;;;;;;;1.00;0.40;;;24.50;50.50;;;;;;5025930;28;20136;-46
2022/06/09 11:23:22;;;;;;;;;;;24.50;50.50;;;;;;5026713;28;20018;-47
2022/06/09 11:26:09;;;;;;;1.40;0.47;;;24.50;50.40;;;;;;5041303;28;19977;-47
2022/06/09 11:28:38;;;;;;;1.92;0.60;;;24.50;50.40;;;;;;5044968;28;20036;-48
2022/06/09 11:31:28;;;;;;;1.42;0.40;;;24.50;50.40;;;;;;5043869;28;20017;-45
2022/06/09 11:34:47;;;;;;;1.05;0.35;;;24.60;50.40;;;;;;5045391;28;20036;-46
2022/06/09 11:37:37;;;;;;;1.17;0.52;;;24.60;50.40;;;;;;5038440;28;20547;-46
2022/06/09 11:40:20;;;;;;;2.17;0.40;;;24.60;50.30;;;;;;5035495;28;20040;-47
2022/06/09 11:43:00;;;;;;;;;;;24.60;50.30;;;;;;5030063;28;20013;-46
2022/06/09 11:45:43;;;;;;;1.30;0.47;;;24.60;50.30;;;;;;5026012;28;19906;-47
2022/06/09 11:48:31;;;;;;;1.50;0.52;;;24.60;50.20;;;;;;5023972;28;20513;-45
2022/06/09 11:50:58;;;;;;;0.93;0.30;;;24.60;50.30;;;;;;5025348;28;20033;-46
2022/06/09 11:53:29;;;;;;;1.10;0.40;;;24.60;50.30;;;;;;5024239;28;20025;-47
2022/06/09 11:56:40;;;;;;;1.88;0.60;;;24.60;50.20;;;;;;5024796;28;20033;-47
2022/06/09 11:59:12;;;;;;;1.35;0.40;;;24.60;50.20;;;;;;5025306;28;20029;-46
2022/06/09 12:01:38;;;;;;;1.10;0.40;;;24.60;50.20;;;;;;5025526;28;20241;-46
2022/06/09 12:04:26;;;;;;;1.42;0.40;;;24.70;50.30;;;;;;5024606;28;20029;-46
2022/06/09 12:07:21;;;;;;;2.20;0.80;;;24.70;50.20;;;;;;5025310;28;20416;-46
2022/06/09 12:10:19;;;;;;;1.00;0.50;;;24.70;50.20;;;;;;5031911;28;20388;-46
2022/06/09 12:13:06;;;;;;;1.52;0.40;;;24.70;50.20;;;;;;5031008;28;20044;-48
2022/06/09 12:15:45;;;;;;;0.68;0.38;;;24.70;50.20;;;;;;5025489;28;20025;-47
2022/06/09 12:18:18;;;;;;;1.02;0.40;;;24.70;50.10;;;;;;5024919;28;20334;-46
2022/06/09 12:20:47;;;;;;;0.85;0.20;;;24.70;50.10;;;;;;5023840;28;20028;-49
2022/06/09 12:23:40;;;;;;;1.10;0.52;;;24.70;50.20;;;;;;5023675;28;20022;-47
2022/06/09 12:26:09;;;;;;;0.70;0.30;;;24.70;50.90;;;;;;5039746;28;20237;-47
2022/06/09 12:28:44;;;;;;;0.85;0.40;;;24.70;50.10;;;;;;5022413;28;20025;-47
2022/06/09 12:31:13;;;;;;;2.03;0.47;;;24.80;50.10;;;;;;5006951;28;20060;-46
2022/06/09 12:34:16;;;;;;;1.63;0.30;;;24.80;50.10;;;;;;5024690;28;20132;-47
2022/06/09 12:36:54;;;;;;;1.38;0.57;;;24.70;50.10;;;;;;5021472;28;20409;-47
2022/06/09 12:39:26;;;;;;;1.05;0.40;;;24.70;50.00;;;;;;5027019;28;20059;-48
2022/06/09 12:41:57;;;;;;;0.60;0.30;;;24.80;50.00;;;;;;5027633;28;20099;-47
2022/06/09 12:44:23;;;;;;;1.48;0.40;;;24.80;50.00;;;;;;5024565;28;20017;-46
2022/06/09 12:47:16;;;;;;;1.23;0.50;;;24.80;50.00;;;;;;5024523;28;20489;-47
2022/06/09 12:49:48;;;;;;;2.30;0.35;;;24.80;50.00;;;;;;5006374;28;20045;-46
2022/06/09 12:52:32;;;;;;;0.40;0.30;;;24.80;50.00;;;;;;5023135;28;20029;-44
2022/06/09 12:55:05;;;;;;;0.73;0.30;;;24.80;50.00;;;;;;5031313;28;20033;-48
2022/06/09 12:57:44;;;;;;;0.98;0.40;;;24.80;49.90;;;;;;5043633;28;20047;-47
2022/06/09 13:00:18;;;;;;;0.75;0.20;;;24.80;50.00;;;;;;5023828;28;20029;-45
2022/06/09 13:02:45;;;;;;;1.05;0.30;;;24.80;50.00;;;;;;5024380;28;20189;-48
2022/06/09 13:05:20;;;;;;;1.05;0.30;;;24.80;49.90;;;;;;5024567;28;20371;-47
2022/06/09 13:08:03;;;;;;;1.55;0.35;;;24.80;50.00;;;;;;5022945;28;20032;-48
2022/06/09 13:10:40;;;;;;;;;;;24.80;49.90;;;;;;5013714;28;20036;-47
2022/06/09 13:13:20;;;;;;;0.70;0.30;;;24.80;50.00;;;;;;5005266;28;20205;-46
2022/06/09 13:16:01;;;;;;;1.15;0.32;;;24.80;49.90;;;;;;5023510;28;20346;-47
2022/06/09 13:18:52;;;;;;;1.70;0.60;;;24.80;50.00;;;;;;5023934;28;20476;-46
2022/06/09 13:21:22;;;;;;;0.68;0.40;;;24.80;49.90;;;;;;5024280;28;20087;-47
2022/06/09 13:23:52;;;;;;;2.05;0.38;;;24.80;49.90;;;;;;5022295;28;20136;-46
2022/06/09 13:26:24;;;;;;;0.75;0.30;;;24.80;49.90;;;;;;5040859;28;20076;-47
2022/06/09 13:29:00;;;;;;;0.55;0.20;;;24.80;49.90;;;;;;5042185;28;20060;-48
2022/06/09 13:31:34;;;;;;;0.77;0.35;;;24.80;49.80;;;;;;5043869;28;20033;-47
2022/06/09 13:34:12;;;;;;;1.02;0.35;;;24.80;49.80;;;;;;5042875;28;20540;-47
2022/06/09 13:37:00;;;;;;;0.50;0.30;;;24.80;49.90;;;;;;5044142;28;20051;-47
2022/06/09 13:39:31;;;;;;;0.38;0.20;;;24.80;49.90;;;;;;5043305;28;20033;-47